Terminal Aerodrome Forecast
Issued by NWS Kansas City/Pleasant Hill, MO

Home | Current Version | Previous Version | Text Only | Print | Product List | Glossary On
Versions: 1 2 3 4 5 6 7 8 9 10 11 12 13 14 15 16 17 18 19 20 21
824
FTUS43 KEAX 251731
TAFMCI
TAF
KMCI 251731Z 2518/2618 02007KT P6SM SCT040 BKN130
     FM252100 03008KT P6SM VCTS SCT025 BKN050CB
     FM260400 06005KT 5SM BR SCT011 BKN030
     FM261500 08005KT P6SM SCT040 BKN130=

USA.gov is the U.S. government's official web portal to all federal, state and local government web resources and services.